createdAt,value
2022-08-21T00:02:28.361Z,3.33
2022-08-21T00:05:01.315Z,3.60
2022-08-21T00:07:34.993Z,3.80
2022-08-21T00:10:11.704Z,3.60
2022-08-21T00:12:45.691Z,3.70
2022-08-21T00:15:20.632Z,3.60
2022-08-21T00:17:56.708Z,3.50
2022-08-21T00:20:29.651Z,3.70
2022-08-21T00:23:02.757Z,3.00
2022-08-21T00:25:36.100Z,2.93
2022-08-21T00:28:10.143Z,2.90
2022-08-21T00:30:44.207Z,3.10
2022-08-21T00:33:17.410Z,3.00
2022-08-21T00:35:50.172Z,2.87
2022-08-21T00:38:23.512Z,3.20
2022-08-21T00:41:21.096Z,3.20
2022-08-21T00:43:38.755Z,3.30
2022-08-21T00:46:12.347Z,3.30
2022-08-21T00:48:45.277Z,3.20
2022-08-21T00:51:29.886Z,3.40
2022-08-21T00:54:05.292Z,3.27
2022-08-21T00:56:39.577Z,3.20
2022-08-21T00:59:14.123Z,3.50
2022-08-21T01:01:47.243Z,3.43
2022-08-21T01:04:20.597Z,3.40
2022-08-21T01:06:54.405Z,3.70
2022-08-21T01:09:28.444Z,3.47
2022-08-21T01:12:01.840Z,3.40
2022-08-21T01:14:35.423Z,3.70
2022-08-21T01:17:14.238Z,3.80
2022-08-21T01:19:47.965Z,3.70
2022-08-21T01:22:21.198Z,4.00
2022-08-21T01:24:54.197Z,3.90
2022-08-21T01:27:27.283Z,4.00
2022-08-21T01:30:11.880Z,3.90
2022-08-21T01:32:44.567Z,3.80
2022-08-21T01:35:19.235Z,3.90
2022-08-21T01:37:52.907Z,4.13
2022-08-21T01:40:25.881Z,3.80
2022-08-21T01:42:58.785Z,4.17
2022-08-21T01:45:32.144Z,3.90
2022-08-21T01:48:05.465Z,3.60
2022-08-21T01:50:38.942Z,3.70
2022-08-21T01:53:11.916Z,3.70
2022-08-21T01:55:46.038Z,3.50
2022-08-21T01:58:19.154Z,3.50
2022-08-21T02:00:52.387Z,3.43
2022-08-21T02:03:26.243Z,3.07
2022-08-21T02:05:59.345Z,3.30
2022-08-21T02:08:33.509Z,3.50
2022-08-21T02:11:06.540Z,3.30
2022-08-21T02:13:39.238Z,3.10
2022-08-21T02:16:12.824Z,3.10
2022-08-21T02:18:46.785Z,3.40
2022-08-21T02:21:19.731Z,3.30
2022-08-21T02:23:52.600Z,3.50
2022-08-21T02:26:25.492Z,3.30
2022-08-21T02:28:58.343Z,3.30
2022-08-21T02:31:31.917Z,3.70
2022-08-21T02:34:05.012Z,3.63
2022-08-21T02:36:39.099Z,3.50
2022-08-21T02:39:13.423Z,3.30
2022-08-21T02:41:46.536Z,3.33
2022-08-21T02:44:19.677Z,3.40
2022-08-21T02:46:52.760Z,3.30
2022-08-21T02:49:26.644Z,3.30
2022-08-21T02:51:59.789Z,3.50
2022-08-21T02:54:33.070Z,3.63
2022-08-21T02:57:06.410Z,3.00
2022-08-21T02:59:39.374Z,3.00
2022-08-21T03:02:12.373Z,3.10
2022-08-21T03:04:46.822Z,3.00
2022-08-21T03:07:23.716Z,3.20
2022-08-21T03:09:56.783Z,3.10
2022-08-21T03:12:30.134Z,3.00
2022-08-21T03:15:03.057Z,3.00
2022-08-21T03:17:36.806Z,3.30
2022-08-21T03:20:11.561Z,3.03
2022-08-21T03:22:48.523Z,3.30
2022-08-21T03:25:18.732Z,3.20
2022-08-21T03:27:57.014Z,3.60
2022-08-21T03:30:27.234Z,3.27
2022-08-21T03:33:00.380Z,3.20
2022-08-21T03:35:34.096Z,3.50
2022-08-21T03:38:11.759Z,3.57
2022-08-21T03:40:45.389Z,3.30
2022-08-21T03:43:18.364Z,3.20
2022-08-21T03:45:52.586Z,3.20
2022-08-21T03:48:25.621Z,3.23
2022-08-21T03:50:59.369Z,3.20
2022-08-21T03:53:33.222Z,3.40
2022-08-21T03:56:10.659Z,3.20
2022-08-21T03:58:48.674Z,3.17
2022-08-21T04:01:21.725Z,3.30
2022-08-21T04:03:54.660Z,3.00
2022-08-21T04:06:35.794Z,3.00
2022-08-21T04:09:05.868Z,3.10
2022-08-21T04:11:42.085Z,3.00
2022-08-21T04:14:15.024Z,2.90
2022-08-21T04:16:48.164Z,3.00
2022-08-21T04:19:21.009Z,2.93
2022-08-21T04:21:53.938Z,2.90
2022-08-21T04:24:30.020Z,3.10
2022-08-21T04:27:02.433Z,3.10
2022-08-21T04:29:39.508Z,2.90
2022-08-21T04:32:09.725Z,2.90
2022-08-21T04:34:42.627Z,3.00
2022-08-21T04:37:15.619Z,3.20
2022-08-21T04:39:52.948Z,3.40
2022-08-21T04:42:22.769Z,3.30
2022-08-21T04:44:55.594Z,3.20
2022-08-21T04:47:41.755Z,3.20
2022-08-21T04:50:03.736Z,3.10
2022-08-21T04:52:41.352Z,2.80
2022-08-21T04:55:14.389Z,2.67
2022-08-21T04:57:49.086Z,2.60
2022-08-21T05:00:22.435Z,2.60
2022-08-21T05:02:57.148Z,2.80
2022-08-21T05:05:35.917Z,2.60
2022-08-21T05:08:10.528Z,2.80
2022-08-21T05:10:47.817Z,2.60
2022-08-21T05:13:21.001Z,2.50
2022-08-21T05:15:58.286Z,2.50
2022-08-21T05:18:30.747Z,2.60
2022-08-21T05:21:03.645Z,2.40
2022-08-21T05:23:37.384Z,2.60
2022-08-21T05:26:16.320Z,2.50
2022-08-21T05:28:44.465Z,2.40
2022-08-21T05:31:17.392Z,2.40
2022-08-21T05:33:53.064Z,2.40
2022-08-21T05:36:27.382Z,2.40
2022-08-21T05:39:02.879Z,2.27
2022-08-21T05:41:35.855Z,2.40
2022-08-21T05:44:10.188Z,2.30
2022-08-21T05:46:43.088Z,2.30
2022-08-21T05:49:16.385Z,2.10
2022-08-21T05:51:49.532Z,2.30
2022-08-21T05:54:26.835Z,2.30
2022-08-21T05:57:00.316Z,2.30
2022-08-21T05:59:33.588Z,2.30
2022-08-21T06:02:07.681Z,2.20
2022-08-21T06:04:44.051Z,2.20
2022-08-21T06:07:16.982Z,2.30
2022-08-21T06:09:49.823Z,2.40
2022-08-21T06:12:23.027Z,2.60
2022-08-21T06:14:56.092Z,2.50
2022-08-21T06:17:29.207Z,2.40
2022-08-21T06:20:04.720Z,2.10
2022-08-21T06:22:37.696Z,2.00
2022-08-21T06:25:12.139Z,2.10
2022-08-21T06:27:44.998Z,1.90
2022-08-21T06:30:18.388Z,1.90
2022-08-21T06:32:51.360Z,2.00
2022-08-21T06:35:24.274Z,2.00
2022-08-21T06:37:57.330Z,2.10
2022-08-21T06:40:32.192Z,2.30
2022-08-21T06:43:15.200Z,2.30
2022-08-21T06:45:47.712Z,2.30
2022-08-21T06:48:20.625Z,2.20
2022-08-21T06:50:53.594Z,2.30
2022-08-21T06:53:26.580Z,2.00
2022-08-21T06:55:59.513Z,2.03
2022-08-21T06:58:32.370Z,2.30
2022-08-21T07:01:06.009Z,2.20
2022-08-21T07:03:40.906Z,2.30
2022-08-21T07:06:15.223Z,2.10
2022-08-21T07:08:48.343Z,2.00
2022-08-21T07:11:23.932Z,2.00
2022-08-21T07:13:58.644Z,2.10
2022-08-21T07:16:31.728Z,2.00
2022-08-21T07:19:04.503Z,1.90
2022-08-21T07:21:42.751Z,2.00
2022-08-21T07:24:16.604Z,1.80
2022-08-21T07:26:49.465Z,2.00
2022-08-21T07:29:22.322Z,2.10
2022-08-21T07:31:55.203Z,1.90
2022-08-21T07:34:28.013Z,1.87
2022-08-21T07:37:06.113Z,1.90
2022-08-21T07:39:35.846Z,1.80
2022-08-21T07:42:08.789Z,2.00
2022-08-21T07:44:41.704Z,2.00
2022-08-21T07:47:14.636Z,1.90
2022-08-21T07:49:48.669Z,2.10
2022-08-21T07:52:21.450Z,1.90
2022-08-21T07:54:54.373Z,1.90
2022-08-21T07:57:27.466Z,1.90
2022-08-21T08:00:05.180Z,1.80
2022-08-21T08:02:38.427Z,1.87
2022-08-21T08:05:13.183Z,1.90
2022-08-21T08:07:46.273Z,1.87
2022-08-21T08:10:20.139Z,2.10
2022-08-21T08:12:58.597Z,1.80
2022-08-21T08:15:37.382Z,1.90
2022-08-21T08:18:07.039Z,1.90
2022-08-21T08:20:39.944Z,1.77
2022-08-21T08:23:14.133Z,1.80
2022-08-21T08:25:47.572Z,1.90
2022-08-21T08:28:20.588Z,1.80
2022-08-21T08:30:53.443Z,1.83
2022-08-21T08:33:26.271Z,1.80
2022-08-21T08:36:02.269Z,1.80
2022-08-21T08:38:33.490Z,2.00
2022-08-21T08:41:15.951Z,2.00
2022-08-21T08:43:50.608Z,2.10
2022-08-21T08:46:29.941Z,1.90
2022-08-21T08:49:17.293Z,1.90
2022-08-21T08:52:09.359Z,1.90
2022-08-21T08:54:44.172Z,2.00
2022-08-21T08:57:21.941Z,2.00
2022-08-21T08:59:57.128Z,2.00
2022-08-21T09:02:33.824Z,2.00
2022-08-21T09:05:06.949Z,2.03
2022-08-21T09:07:54.543Z,2.00
2022-08-21T09:10:29.922Z,2.00
2022-08-21T09:13:22.741Z,2.00
2022-08-21T09:16:12.757Z,2.30
2022-08-21T09:18:50.513Z,2.10
2022-08-21T09:21:31.159Z,2.20
2022-08-21T09:24:21.626Z,2.10
2022-08-21T09:26:56.726Z,2.00
2022-08-21T09:29:32.538Z,2.00
2022-08-21T09:32:05.692Z,2.20
2022-08-21T09:34:38.952Z,2.03
2022-08-21T09:37:13.655Z,2.10
2022-08-21T09:39:48.671Z,1.90
2022-08-21T09:42:28.567Z,1.90
2022-08-21T09:45:21.875Z,2.00
2022-08-21T09:47:54.977Z,2.00
2022-08-21T09:50:30.120Z,2.00
2022-08-21T09:53:04.750Z,2.00
2022-08-21T09:56:21.470Z,2.00
2022-08-21T09:58:56.207Z,1.87
2022-08-21T10:01:31.535Z,1.80
2022-08-21T10:04:14.942Z,1.90
2022-08-21T10:06:52.094Z,1.90
2022-08-21T10:09:26.728Z,1.87
2022-08-21T10:12:04.106Z,1.90
2022-08-21T10:14:45.437Z,1.80
2022-08-21T10:17:44.069Z,1.80
2022-08-21T10:20:21.816Z,1.80
2022-08-21T10:23:02.415Z,1.90
2022-08-21T10:26:13.533Z,1.80
2022-08-21T10:28:36.217Z,2.00
2022-08-21T10:31:33.752Z,1.80
2022-08-21T10:34:18.363Z,1.90
2022-08-21T10:36:52.989Z,1.80
2022-08-21T10:39:35.278Z,1.80
2022-08-21T10:42:04.287Z,1.70
2022-08-21T10:44:44.909Z,1.80
2022-08-21T10:47:19.644Z,1.80
2022-08-21T10:50:00.259Z,1.80
2022-08-21T10:52:44.153Z,1.80
2022-08-21T10:55:16.785Z,1.90
2022-08-21T10:57:54.465Z,1.80
2022-08-21T11:00:29.334Z,1.80
2022-08-21T11:03:23.710Z,1.70
2022-08-21T11:05:58.925Z,2.00
2022-08-21T11:08:43.693Z,2.10
2022-08-21T11:11:36.773Z,1.90
2022-08-21T11:14:11.706Z,1.90
2022-08-21T11:16:46.402Z,2.00
2022-08-21T11:19:31.502Z,1.80
2022-08-21T11:22:30.299Z,1.80
2022-08-21T11:25:20.634Z,1.80
2022-08-21T11:27:55.333Z,2.00
2022-08-21T11:30:30.938Z,2.00
2022-08-21T11:33:14.628Z,1.90
2022-08-21T11:35:52.481Z,2.00
2022-08-21T11:38:33.431Z,1.90
2022-08-21T11:41:23.589Z,2.00
2022-08-21T11:44:14.074Z,2.00
2022-08-21T11:46:55.157Z,2.10
2022-08-21T11:49:47.725Z,2.10
2022-08-21T11:52:45.745Z,1.90
2022-08-21T11:55:26.059Z,2.03
2022-08-21T11:58:21.805Z,1.90
2022-08-21T12:00:56.791Z,2.20
2022-08-21T12:03:34.044Z,1.90
2022-08-21T12:06:23.954Z,2.00
2022-08-21T12:08:52.113Z,2.10
2022-08-21T12:11:30.739Z,2.00
2022-08-21T12:14:15.460Z,2.00
2022-08-21T12:16:53.609Z,2.00
2022-08-21T12:19:31.454Z,2.10
2022-08-21T12:22:12.171Z,2.10
2022-08-21T12:24:54.814Z,2.00
2022-08-21T12:27:55.116Z,1.93
2022-08-21T12:30:36.148Z,1.80
2022-08-21T12:33:27.617Z,1.70
2022-08-21T12:36:12.591Z,1.80
2022-08-21T12:39:11.955Z,2.00
2022-08-21T12:42:02.013Z,1.90
2022-08-21T12:44:50.665Z,1.90
2022-08-21T12:47:31.391Z,1.83
2022-08-21T12:50:15.208Z,1.80
2022-08-21T12:52:50.394Z,1.80
2022-08-21T12:55:25.533Z,1.97
2022-08-21T12:57:58.512Z,1.80
2022-08-21T13:00:33.854Z,1.70
2022-08-21T13:03:07.221Z,1.83
2022-08-21T13:05:44.111Z,1.80
2022-08-21T13:08:18.062Z,1.90
2022-08-21T13:10:52.910Z,1.80
2022-08-21T13:13:30.570Z,1.80
2022-08-21T13:16:05.454Z,1.90
2022-08-21T13:18:40.404Z,1.90
2022-08-21T13:21:16.578Z,1.90
2022-08-21T13:23:53.442Z,1.80
2022-08-21T13:26:27.084Z,1.80
2022-08-21T13:29:01.140Z,1.70
2022-08-21T13:31:35.034Z,1.90
2022-08-21T13:34:08.419Z,1.90
2022-08-21T13:36:43.357Z,1.90
2022-08-21T13:39:20.931Z,1.90
2022-08-21T13:41:55.977Z,1.77
2022-08-21T13:44:37.141Z,1.70
2022-08-21T13:47:15.844Z,1.80
2022-08-21T13:49:59.273Z,1.90
2022-08-21T13:52:31.952Z,1.90
2022-08-21T13:55:06.693Z,1.90
2022-08-21T13:57:41.066Z,1.80
2022-08-21T14:00:19.196Z,1.80
2022-08-21T14:02:54.514Z,1.80
2022-08-21T14:05:35.537Z,1.70
2022-08-21T14:08:14.567Z,1.70
2022-08-21T14:10:57.159Z,1.80
2022-08-21T14:13:34.182Z,1.80
2022-08-21T14:16:10.188Z,1.80
2022-08-21T14:18:52.497Z,1.70
2022-08-21T14:21:36.482Z,1.60
2022-08-21T14:24:14.551Z,1.60
2022-08-21T14:26:52.218Z,1.60
2022-08-21T14:29:28.662Z,1.70
2022-08-21T14:32:04.903Z,1.63
2022-08-21T14:34:38.519Z,1.50
2022-08-21T14:37:11.274Z,1.70
2022-08-21T14:39:45.340Z,1.50
2022-08-21T14:42:19.405Z,1.70
2022-08-21T14:44:52.304Z,1.60
2022-08-21T14:47:25.431Z,1.60
2022-08-21T14:49:58.251Z,1.60
2022-08-21T14:52:31.174Z,1.60
2022-08-21T14:55:04.115Z,1.60
2022-08-21T14:57:38.759Z,1.60
2022-08-21T15:00:13.363Z,1.60
2022-08-21T15:02:46.184Z,1.50
2022-08-21T15:05:31.459Z,1.50
2022-08-21T15:07:53.823Z,1.50
2022-08-21T15:10:27.849Z,1.60
2022-08-21T15:13:01.294Z,1.50
2022-08-21T15:15:36.577Z,1.60
2022-08-21T15:18:09.567Z,1.60
2022-08-21T15:20:43.154Z,1.60
2022-08-21T15:23:16.153Z,1.70
2022-08-21T15:25:54.905Z,1.60
2022-08-21T15:28:31.516Z,1.80
2022-08-21T15:31:03.413Z,1.60
2022-08-21T15:33:36.829Z,1.60
2022-08-21T15:36:14.216Z,1.70
2022-08-21T15:38:51.401Z,1.70
2022-08-21T15:41:24.518Z,1.60
2022-08-21T15:43:58.011Z,1.70
2022-08-21T15:46:35.092Z,1.60
2022-08-21T15:49:07.925Z,1.60
2022-08-21T15:51:43.531Z,1.70
2022-08-21T15:54:14.909Z,1.70
2022-08-21T15:56:50.207Z,1.77
2022-08-21T15:59:30.267Z,1.70
2022-08-21T16:02:03.442Z,1.70
2022-08-21T16:04:36.746Z,1.60
2022-08-21T16:07:10.595Z,1.40
2022-08-21T16:09:43.605Z,1.70
2022-08-21T16:12:19.389Z,1.80
2022-08-21T16:14:55.341Z,1.63
2022-08-21T16:17:29.964Z,1.60
2022-08-21T16:20:03.987Z,1.60
2022-08-21T16:22:44.766Z,1.57
2022-08-21T16:25:16.683Z,1.60
2022-08-21T16:27:59.530Z,1.70
2022-08-21T16:30:33.597Z,1.90
2022-08-21T16:33:08.399Z,1.60
2022-08-21T16:35:41.388Z,1.70
2022-08-21T16:38:14.386Z,1.70
2022-08-21T16:40:47.237Z,1.80
2022-08-21T16:43:21.244Z,1.70
2022-08-21T16:45:58.248Z,1.70
2022-08-21T16:48:32.866Z,1.60
2022-08-21T16:51:05.771Z,1.70
2022-08-21T16:53:38.769Z,1.70
2022-08-21T16:56:12.534Z,1.70
2022-08-21T16:58:51.913Z,1.70
2022-08-21T17:01:26.886Z,1.60
2022-08-21T17:03:59.846Z,1.70
2022-08-21T17:06:33.162Z,1.73
2022-08-21T17:09:07.441Z,1.70
2022-08-21T17:11:45.367Z,1.60
2022-08-21T17:14:21.503Z,1.60
2022-08-21T17:16:56.177Z,1.70
2022-08-21T17:19:29.597Z,1.70
2022-08-21T17:22:02.727Z,1.70
2022-08-21T17:24:35.884Z,1.60
2022-08-21T17:27:10.676Z,1.80
2022-08-21T17:29:49.275Z,1.80
2022-08-21T17:32:27.321Z,1.80
2022-08-21T17:35:00.328Z,1.80
2022-08-21T17:37:33.414Z,1.70
2022-08-21T17:40:07.978Z,1.70
2022-08-21T17:42:40.654Z,1.80
2022-08-21T17:45:15.069Z,1.80
2022-08-21T17:47:47.982Z,1.70
2022-08-21T17:50:23.141Z,1.70
2022-08-21T17:52:56.777Z,1.70
2022-08-21T17:55:30.171Z,1.70
2022-08-21T17:58:04.220Z,1.63
2022-08-21T18:00:37.591Z,1.60
2022-08-21T18:03:13.331Z,1.50
2022-08-21T18:05:47.625Z,1.57
2022-08-21T18:08:20.792Z,1.60
2022-08-21T18:10:55.246Z,1.60
2022-08-21T18:13:30.864Z,1.60
2022-08-21T18:16:04.386Z,1.60
2022-08-21T18:18:39.603Z,1.70
2022-08-21T18:21:12.436Z,1.70
2022-08-21T18:23:45.383Z,1.70
2022-08-21T18:26:23.287Z,1.60
2022-08-21T18:28:56.496Z,1.50
2022-08-21T18:31:30.168Z,1.60
2022-08-21T18:34:04.404Z,1.50
2022-08-21T18:36:43.520Z,1.50
2022-08-21T18:39:35.583Z,1.50
2022-08-21T18:41:51.540Z,1.50
2022-08-21T18:44:26.306Z,1.40
2022-08-21T18:47:04.061Z,1.40
2022-08-21T18:49:37.222Z,1.50
2022-08-21T18:52:17.780Z,1.50
2022-08-21T18:54:49.767Z,1.47
2022-08-21T18:57:23.132Z,1.60
2022-08-21T18:59:55.910Z,1.50
2022-08-21T19:02:29.199Z,1.60
2022-08-21T19:05:02.487Z,1.60
2022-08-21T19:07:36.138Z,1.60
2022-08-21T19:12:46.943Z,1.60
2022-08-21T19:15:21.835Z,1.50
2022-08-21T19:17:56.856Z,1.60
2022-08-21T19:20:32.065Z,1.50
2022-08-21T19:23:05.144Z,1.50
2022-08-21T19:28:21.146Z,1.50
2022-08-21T19:30:58.540Z,1.60
2022-08-21T19:33:34.729Z,1.60
2022-08-21T19:36:09.057Z,1.60
2022-08-21T19:38:42.936Z,1.70
2022-08-21T19:41:17.429Z,1.60
2022-08-21T19:43:52.266Z,1.63
2022-08-21T19:46:39.304Z,1.80
2022-08-21T19:49:15.117Z,1.90
2022-08-21T19:51:47.982Z,2.10
2022-08-21T19:54:24.258Z,2.20
2022-08-21T19:56:58.832Z,2.50
2022-08-21T19:59:33.259Z,2.50
2022-08-21T20:02:10.728Z,2.60
2022-08-21T20:04:53.759Z,2.70
2022-08-21T20:07:26.560Z,2.60
2022-08-21T20:09:56.483Z,2.80
2022-08-21T20:12:30.244Z,2.90
2022-08-21T20:15:03.662Z,2.90
2022-08-21T20:17:38.865Z,2.80
2022-08-21T20:20:12.225Z,2.90
2022-08-21T20:22:45.132Z,2.90
2022-08-21T20:25:21.232Z,2.77
2022-08-21T20:27:56.168Z,2.80
2022-08-21T20:30:29.236Z,2.80
2022-08-21T20:33:02.495Z,2.80
2022-08-21T20:35:35.546Z,2.60
2022-08-21T20:38:08.482Z,2.60
2022-08-21T20:40:41.998Z,2.70
2022-08-21T20:43:15.167Z,3.00
2022-08-21T20:45:48.715Z,2.57
2022-08-21T20:48:49.242Z,2.50
2022-08-21T20:51:11.120Z,2.50
2022-08-21T20:54:18.991Z,2.60
2022-08-21T20:57:17.642Z,2.60
2022-08-21T21:00:01.652Z,2.60
2022-08-21T21:02:48.055Z,2.60
2022-08-21T21:05:23.309Z,2.70
2022-08-21T21:08:14.904Z,2.60
2022-08-21T21:10:55.365Z,2.70
2022-08-21T21:13:47.470Z,2.80
2022-08-21T21:16:24.968Z,2.90
2022-08-21T21:19:00.734Z,3.10
2022-08-21T21:21:42.796Z,2.90
2022-08-21T21:24:27.572Z,2.80
2022-08-21T21:27:00.751Z,2.80
2022-08-21T21:29:47.125Z,2.60
2022-08-21T21:32:20.997Z,2.53
2022-08-21T21:34:53.938Z,2.60
2022-08-21T21:37:37.654Z,2.80
2022-08-21T21:40:31.892Z,2.70
2022-08-21T21:43:06.541Z,2.57
2022-08-21T21:46:06.558Z,2.60
2022-08-21T21:48:51.198Z,2.50
2022-08-21T21:51:41.445Z,2.77
2022-08-21T21:54:22.610Z,2.60
2022-08-21T21:57:04.662Z,2.60
2022-08-21T21:59:42.814Z,2.50
2022-08-21T22:02:36.348Z,2.90
2022-08-21T22:05:16.790Z,2.60
2022-08-21T22:08:01.500Z,2.60
2022-08-21T22:10:43.225Z,2.60
2022-08-21T22:13:38.530Z,2.43
2022-08-21T22:16:11.792Z,2.60
2022-08-21T22:18:55.503Z,2.50
2022-08-21T22:21:36.403Z,2.43
2022-08-21T22:24:13.895Z,2.50
2022-08-21T22:26:49.564Z,2.50
2022-08-21T22:29:24.311Z,2.50
2022-08-21T22:32:08.178Z,2.50
2022-08-21T22:34:42.474Z,2.40
2022-08-21T22:37:21.723Z,2.60
2022-08-21T22:39:56.840Z,2.50
2022-08-21T22:42:30.771Z,2.40
2022-08-21T22:45:06.462Z,2.57
2022-08-21T22:47:42.830Z,2.27
2022-08-21T22:50:30.478Z,2.27
2022-08-21T22:53:12.327Z,2.40
2022-08-21T22:55:50.163Z,2.50
2022-08-21T22:58:31.445Z,2.70
2022-08-21T23:01:27.614Z,2.70
2022-08-21T23:04:11.675Z,2.60
2022-08-21T23:06:52.013Z,2.60
2022-08-21T23:09:32.496Z,2.60
2022-08-21T23:12:21.201Z,2.40
2022-08-21T23:14:43.099Z,2.50
2022-08-21T23:17:23.023Z,2.50
2022-08-21T23:20:01.125Z,2.33
2022-08-21T23:22:54.541Z,2.50
2022-08-21T23:25:51.047Z,2.70
2022-08-21T23:28:47.013Z,2.80
2022-08-21T23:31:23.339Z,3.07
2022-08-21T23:34:06.144Z,3.10
2022-08-21T23:37:10.066Z,3.00
2022-08-21T23:39:46.122Z,2.90
2022-08-21T23:42:28.129Z,3.10
2022-08-21T23:45:24.336Z,3.00
2022-08-21T23:48:07.936Z,2.90
2022-08-21T23:51:15.581Z,2.90
2022-08-21T23:54:06.918Z,2.60
2022-08-21T23:56:59.788Z,2.50
2022-08-21T23:59:46.700Z,2.50
